NCAR-RAP Real-Time Weather Data

Output produced by METARs form (18 August 2018  01:02 UTC)
found at http://weather.rap.ucar.edu/surface/
 
RJBE 180000Z 08008KT 9999 FEW035 BKN/// 25/13 Q1012
RJBE 172300Z 06011KT 9999 FEW035 BKN/// 24/14 Q1012
RJBE 172200Z 06011KT 9999 FEW030 BKN/// 22/14 Q1012
RJBE 171200Z 03011KT CAVOK 24/14 Q1011
RJBE 171100Z 03014KT CAVOK 24/13 Q1010
RJBE 171000Z 03012G23KT 9999 FEW030 25/14 Q1010
RJBE 170900Z 04014KT 9999 FEW030 26/12 Q1009
RJBE 170800Z 02014KT 9999 FEW030 SCT/// 28/12 Q1009
RJBE 170700Z 02011KT 9999 FEW040 BKN/// 28/13 Q1009
RJBE 170600Z 01016KT 9999 FEW040 BKN/// 29/12 Q1009
RJBE 170500Z 03014KT 9999 FEW040 BKN/// 29/13 Q1009
RJBE 170400Z 36015G25KT 9999 FEW040 BKN/// 29/13 Q1009
RJBE 170300Z 03012KT 9999 FEW040 SCT/// 30/13 Q1010
RJBE 170200Z 02011KT 340V050 9999 FEW030 SCT040 30/15 Q1010
RJBE 170100Z 02010KT 330V040 9999 FEW030 SCT040 28/14 Q1011
RJBE 170000Z 04008KT 9999 FEW030 28/15 Q1011
RJBE 162300Z VRB03KT 9999 FEW025 27/17 Q1011
RJBE 162200Z 04008KT 9999 FEW030 25/18 Q1011
RJBE 161200Z 14003KT 090V200 9999 FEW015 SCT050 BKN070 27/23 Q1009
RJBE 161100Z VRB04KT 9999 VCSH FEW015 SCT030 BKN050 26/23 Q1008
RJBE 161000Z 22010KT 9999 FEW015 FEW020CB SCT050 BKN100 26/25 Q1008
RJBE 160900Z 24009KT 9999 FEW020 SCT080 BKN110 27/25 Q1008
RJBE 160800Z 23013KT 9999 FEW008 SCT080 BKN/// 27/25 Q1007
RJBE 160700Z 22014KT 9999 -SHRA FEW007 SCT040 BKN/// 27/25 Q1007
RJBE 160600Z 23014KT 9999 -SHRA FEW006 SCT025 BKN070 27/26 Q1007
RJBE 160500Z 23015KT 9999 FEW006 BKN025 BKN/// 27/25 Q1008
RJBE 160400Z 21017KT 9999 FEW012 SCT025 BKN/// 27/25 Q1008
RJBE 160300Z 22019KT 9999 -SHRA FEW006 SCT015 BKN050 27/25 Q1009
RJBE 160200Z 21019KT 9999 -SHRA FEW005 SCT015 FEW025CB BKN040 27/25 Q1009
RJBE 160100Z 23010KT 9999 FEW006 SCT015 BKN/// 28/26 Q1009
RJBE 160000Z 22015KT 9999 FEW004 BKN/// 27/25 Q1009
RJBE 152300Z 20016KT 9999 FEW006 SCT060 BKN/// 28/25 Q1009
RJBE 152200Z 18012KT 9999 FEW006 BKN/// 27/26 Q1008